createdAt,value
2023-03-16T00:02:20.649Z,99081.72
2023-03-16T00:04:48.396Z,99092.66
2023-03-16T00:07:15.844Z,99085.22
2023-03-16T00:09:43.386Z,99086.09
2023-03-16T00:12:19.719Z,99092.91
2023-03-16T00:14:48.418Z,99090.62
2023-03-16T00:17:19.428Z,99096.66
2023-03-16T00:19:54.973Z,99104.47
2023-03-16T00:22:29.436Z,99099.53
2023-03-16T00:24:56.949Z,99096.66
2023-03-16T00:27:25.810Z,99095.66
2023-03-16T00:29:57.186Z,99099.41
2023-03-16T00:32:28.389Z,99110.38
2023-03-16T00:34:56.239Z,99109.50
2023-03-16T00:37:24.905Z,99099.66
2023-03-16T00:39:56.212Z,99106.41
2023-03-16T00:42:27.594Z,99103.94
2023-03-16T00:44:57.730Z,99108.66
2023-03-16T00:47:28.503Z,99101.69
2023-03-16T00:49:56.458Z,99102.22
2023-03-16T00:52:24.742Z,99101.69
2023-03-16T00:54:53.133Z,99113.19
2023-03-16T00:57:23.134Z,99101.47
2023-03-16T00:59:50.965Z,99103.06
2023-03-16T01:02:20.039Z,99109.59
2023-03-16T01:04:49.652Z,99122.28
2023-03-16T01:07:17.081Z,99121.97
2023-03-16T01:09:44.551Z,99122.91
2023-03-16T01:12:15.972Z,99121.75
2023-03-16T01:14:47.870Z,99127.41
2023-03-16T01:17:17.665Z,99125.25
2023-03-16T01:19:45.926Z,99129.91
2023-03-16T01:22:13.992Z,99130.69
2023-03-16T01:24:42.861Z,99126.25
2023-03-16T01:27:10.267Z,99130.69
2023-03-16T01:29:38.500Z,99133.66
2023-03-16T01:32:07.291Z,99128.28
2023-03-16T01:34:35.221Z,99127.41
2023-03-16T01:37:02.952Z,99125.06
2023-03-16T01:39:30.820Z,99133.47
2023-03-16T01:41:58.283Z,99141.81
2023-03-16T01:44:36.080Z,99134.63
2023-03-16T01:47:04.034Z,99139.16
2023-03-16T01:49:36.750Z,99134.16
2023-03-16T01:52:12.653Z,99142.50
2023-03-16T01:54:45.118Z,99140.47
2023-03-16T01:57:15.665Z,99141.22
2023-03-16T02:00:12.180Z,99141.13
2023-03-16T02:02:43.723Z,99149.06
2023-03-16T02:05:17.963Z,99154.13
2023-03-16T02:07:50.045Z,99159.94
2023-03-16T02:10:19.739Z,99161.06
2023-03-16T02:12:47.441Z,99161.25
2023-03-16T02:15:15.287Z,99173.41
2023-03-16T02:17:44.367Z,99174.19
2023-03-16T02:20:16.272Z,99177.87
2023-03-16T02:22:49.694Z,99179.06
2023-03-16T02:25:18.694Z,99185.84
2023-03-16T02:28:17.622Z,99192.66
2023-03-16T02:30:47.075Z,99189.00
2023-03-16T02:33:16.616Z,99191.03
2023-03-16T02:35:44.541Z,99192.84
2023-03-16T02:38:11.962Z,99188.44
2023-03-16T02:40:43.874Z,99198.78
2023-03-16T02:43:15.265Z,99211.53
2023-03-16T02:45:51.295Z,99205.16
2023-03-16T02:48:46.820Z,99212.03
2023-03-16T02:51:14.714Z,99214.38
2023-03-16T02:53:42.488Z,99213.72
2023-03-16T02:56:10.044Z,99219.38
2023-03-16T02:58:37.956Z,99217.66
2023-03-16T03:01:06.279Z,99224.50
2023-03-16T03:03:34.647Z,99231.00
2023-03-16T03:06:03.206Z,99229.50
2023-03-16T03:08:32.816Z,99234.38
2023-03-16T03:11:00.410Z,99242.22
2023-03-16T03:13:28.131Z,99241.56
2023-03-16T03:15:55.661Z,99248.53
2023-03-16T03:18:25.272Z,99256.22
2023-03-16T03:20:53.747Z,99248.75
2023-03-16T03:23:21.171Z,99249.34
2023-03-16T03:25:48.548Z,99252.47
2023-03-16T03:28:16.516Z,99255.63
2023-03-16T03:30:45.278Z,99261.13
2023-03-16T03:33:13.031Z,99262.66
2023-03-16T03:35:42.136Z,99266.38
2023-03-16T03:38:10.041Z,99262.69
2023-03-16T03:40:37.764Z,99271.97
2023-03-16T03:43:06.413Z,99273.81
2023-03-16T03:45:34.709Z,99283.97
2023-03-16T03:48:02.221Z,99273.03
2023-03-16T03:50:30.218Z,99287.47
2023-03-16T03:52:58.036Z,99290.47
2023-03-16T03:55:25.940Z,99290.91
2023-03-16T03:57:53.631Z,99296.75
2023-03-16T04:00:22.032Z,99293.94
2023-03-16T04:02:50.131Z,99288.81
2023-03-16T04:05:17.978Z,99287.75
2023-03-16T04:07:45.967Z,99292.06
2023-03-16T04:10:14.539Z,99295.50
2023-03-16T04:12:42.012Z,99294.34
2023-03-16T04:15:11.151Z,99301.53
2023-03-16T04:17:39.988Z,99295.16
2023-03-16T04:20:14.388Z,99293.66
2023-03-16T04:22:42.818Z,99296.22
2023-03-16T04:25:11.650Z,99299.31
2023-03-16T04:27:39.361Z,99306.34
2023-03-16T04:30:12.049Z,99313.53
2023-03-16T04:32:41.678Z,99319.47
2023-03-16T04:35:10.811Z,99323.66
2023-03-16T04:37:39.351Z,99319.75
2023-03-16T04:40:16.234Z,99328.16
2023-03-16T04:42:45.947Z,99327.28
2023-03-16T04:45:15.769Z,99329.22
2023-03-16T04:47:43.695Z,99332.81
2023-03-16T04:50:12.284Z,99329.41
2023-03-16T04:52:41.231Z,99341.78
2023-03-16T04:55:09.085Z,99340.78
2023-03-16T04:57:37.691Z,99346.50
2023-03-16T05:00:11.807Z,99356.88
2023-03-16T05:02:40.187Z,99352.47
2023-03-16T05:05:08.058Z,99364.72
2023-03-16T05:07:36.147Z,99358.06
2023-03-16T05:10:04.072Z,99361.28
2023-03-16T05:12:31.532Z,99361.03
2023-03-16T05:14:59.492Z,99368.00
2023-03-16T05:17:27.808Z,99366.81
2023-03-16T05:19:55.463Z,99370.66
2023-03-16T05:22:23.563Z,99370.97
2023-03-16T05:24:53.477Z,99374.03
2023-03-16T05:27:21.651Z,99366.09
2023-03-16T05:29:49.139Z,99367.19
2023-03-16T05:32:17.187Z,99372.50
2023-03-16T05:34:46.135Z,99365.16
2023-03-16T05:37:13.605Z,99368.72
2023-03-16T05:39:41.310Z,99362.97
2023-03-16T05:42:08.800Z,99369.31
2023-03-16T05:44:37.428Z,99366.97
2023-03-16T05:47:05.397Z,99374.59
2023-03-16T05:49:33.764Z,99376.97
2023-03-16T05:52:01.483Z,99375.78
2023-03-16T05:54:30.406Z,99381.00
2023-03-16T05:56:57.907Z,99390.09
2023-03-16T05:59:25.582Z,99390.53
2023-03-16T06:01:53.582Z,99389.81
2023-03-16T06:04:21.878Z,99397.78
2023-03-16T06:06:49.472Z,99393.59
2023-03-16T06:09:17.309Z,99411.81
2023-03-16T06:11:45.042Z,99407.84
2023-03-16T06:14:14.621Z,99411.25
2023-03-16T06:16:42.344Z,99413.75
2023-03-16T06:19:11.161Z,99422.28
2023-03-16T06:21:39.053Z,99419.81
2023-03-16T06:24:09.216Z,99425.53
2023-03-16T06:26:37.358Z,99433.38
2023-03-16T06:29:05.876Z,99440.19
2023-03-16T06:31:34.230Z,99446.41
2023-03-16T06:34:02.698Z,99446.56
2023-03-16T06:36:30.760Z,99448.25
2023-03-16T06:38:58.629Z,99456.81
2023-03-16T06:41:26.501Z,99460.87
2023-03-16T06:43:54.272Z,99458.81
2023-03-16T06:46:21.775Z,99472.38
2023-03-16T06:48:49.537Z,99464.44
2023-03-16T06:51:17.305Z,99475.34
2023-03-16T06:53:45.442Z,99484.16
2023-03-16T06:56:13.664Z,99480.28
2023-03-16T06:58:41.824Z,99491.59
2023-03-16T07:01:09.428Z,99490.41
2023-03-16T07:03:37.298Z,99493.94
2023-03-16T07:06:06.102Z,99489.84
2023-03-16T07:08:33.561Z,99488.19
2023-03-16T07:11:01.539Z,99496.13
2023-03-16T07:13:30.193Z,99509.06
2023-03-16T07:15:58.088Z,99499.66
2023-03-16T07:18:26.246Z,99512.50
2023-03-16T07:20:54.797Z,99510.28
2023-03-16T07:23:24.852Z,99515.00
2023-03-16T07:25:53.391Z,99521.66
2023-03-16T07:28:21.170Z,99533.03
2023-03-16T07:31:02.967Z,99531.78
2023-03-16T07:33:33.813Z,99539.31
2023-03-16T07:36:04.547Z,99534.19
2023-03-16T07:38:34.042Z,99535.63
2023-03-16T07:41:02.512Z,99533.44
2023-03-16T07:43:29.950Z,99538.38
2023-03-16T07:45:57.701Z,99533.50
2023-03-16T07:48:26.061Z,99531.09
2023-03-16T07:50:54.271Z,99540.44
2023-03-16T07:53:22.733Z,99543.13
2023-03-16T07:55:50.921Z,99535.16
2023-03-16T07:58:18.495Z,99542.69
2023-03-16T08:00:46.425Z,99530.25
2023-03-16T08:03:14.189Z,99536.56
2023-03-16T08:05:41.785Z,99525.31
2023-03-16T08:08:12.036Z,99539.25
2023-03-16T08:10:39.896Z,99531.59
2023-03-16T08:13:08.357Z,99539.66
2023-03-16T08:15:36.301Z,99529.75
2023-03-16T08:18:04.288Z,99523.25
2023-03-16T08:20:32.148Z,99536.03
2023-03-16T08:22:59.912Z,99534.44
2023-03-16T08:25:28.100Z,99553.56
2023-03-16T08:27:58.271Z,99551.47
2023-03-16T08:30:27.104Z,99550.22
2023-03-16T08:32:55.490Z,99550.72
2023-03-16T08:35:23.228Z,99546.19
2023-03-16T08:37:50.846Z,99550.94
2023-03-16T08:40:18.963Z,99542.66
2023-03-16T08:42:50.087Z,99553.06
2023-03-16T08:45:20.003Z,99547.50
2023-03-16T08:47:47.499Z,99544.59
2023-03-16T08:50:15.891Z,99541.00
2023-03-16T08:52:43.653Z,99544.22
2023-03-16T08:55:11.357Z,99540.94
2023-03-16T08:57:39.448Z,99545.31
2023-03-16T09:00:14.907Z,99550.97
2023-03-16T09:02:44.690Z,99551.03
2023-03-16T09:05:14.987Z,99543.03
2023-03-16T09:07:42.504Z,99539.69
2023-03-16T09:10:13.454Z,99542.63
2023-03-16T09:12:41.218Z,99543.09
2023-03-16T09:15:10.327Z,99547.81
2023-03-16T09:17:39.922Z,99541.47
2023-03-16T09:20:21.788Z,99541.19
2023-03-16T09:22:58.784Z,99552.28
2023-03-16T09:25:26.552Z,99553.59
2023-03-16T09:27:54.128Z,99552.63
2023-03-16T09:30:21.621Z,99555.44
2023-03-16T09:32:50.514Z,99557.78
2023-03-16T09:35:18.099Z,99551.75
2023-03-16T09:38:01.101Z,99558.53
2023-03-16T09:40:33.456Z,99554.91
2023-03-16T09:43:07.226Z,99553.47
2023-03-16T09:46:02.110Z,99570.19
2023-03-16T09:48:30.899Z,99553.34
2023-03-16T09:51:00.018Z,99559.50
2023-03-16T09:53:32.550Z,99564.13
2023-03-16T09:56:06.115Z,99557.47
2023-03-16T09:58:34.149Z,99567.06
2023-03-16T10:01:28.744Z,99560.38
2023-03-16T10:04:13.404Z,99557.84
2023-03-16T10:07:10.102Z,99566.03
2023-03-16T10:09:41.529Z,99557.41
2023-03-16T10:12:09.940Z,99569.63
2023-03-16T10:14:45.224Z,99571.09
2023-03-16T10:17:28.141Z,99567.84
2023-03-16T10:19:58.137Z,99579.16
2023-03-16T10:22:37.829Z,99574.94
2023-03-16T10:25:24.435Z,99572.41
2023-03-16T10:27:52.294Z,99571.53
2023-03-16T10:30:19.900Z,99576.28
2023-03-16T10:32:48.281Z,99569.19
2023-03-16T10:35:28.417Z,99564.66
2023-03-16T10:37:57.228Z,99567.84
2023-03-16T10:40:24.683Z,99573.72
2023-03-16T10:42:52.251Z,99573.03
2023-03-16T10:45:25.388Z,99566.31
2023-03-16T10:47:52.863Z,99568.81
2023-03-16T10:50:25.427Z,99558.06
2023-03-16T10:52:56.605Z,99574.81
2023-03-16T10:55:32.561Z,99573.47
2023-03-16T10:58:01.328Z,99573.47
2023-03-16T11:00:43.287Z,99558.13
2023-03-16T11:03:28.864Z,99555.53
2023-03-16T11:06:02.199Z,99546.47
2023-03-16T11:08:34.915Z,99562.78
2023-03-16T11:11:09.958Z,99567.75
2023-03-16T11:13:38.706Z,99551.47
2023-03-16T11:16:39.738Z,99558.09
2023-03-16T11:19:29.785Z,99550.25
2023-03-16T11:22:19.005Z,99544.81
2023-03-16T11:24:54.140Z,99539.47
2023-03-16T11:27:26.334Z,99538.88
2023-03-16T11:30:01.683Z,99529.37
2023-03-16T11:32:36.692Z,99546.09
2023-03-16T11:35:22.372Z,99543.91
2023-03-16T11:38:14.613Z,99526.94
2023-03-16T11:40:50.851Z,99530.78
2023-03-16T11:43:42.586Z,99518.97
2023-03-16T11:46:11.782Z,99528.06
2023-03-16T11:49:01.437Z,99515.16
2023-03-16T11:51:28.814Z,99514.75
2023-03-16T11:54:07.893Z,99520.72
2023-03-16T11:56:40.587Z,99514.25
2023-03-16T11:59:22.164Z,99524.09
2023-03-16T12:02:15.323Z,99514.19
2023-03-16T12:05:22.354Z,99517.12
2023-03-16T12:08:24.612Z,99495.81
2023-03-16T12:11:10.148Z,99511.06
2023-03-16T12:14:00.401Z,99509.09
2023-03-16T12:16:48.282Z,99504.84
2023-03-16T12:19:45.930Z,99500.63
2023-03-16T12:22:13.647Z,99503.72
2023-03-16T12:24:43.753Z,99507.09
2023-03-16T12:27:17.726Z,99497.66
2023-03-16T12:29:55.767Z,99502.22
2023-03-16T12:32:40.264Z,99504.44
2023-03-16T12:35:19.743Z,99502.78
2023-03-16T12:37:50.265Z,99501.50
2023-03-16T12:40:41.592Z,99505.59
2023-03-16T12:43:12.080Z,99515.97
2023-03-16T12:45:53.726Z,99513.66
2023-03-16T12:48:27.818Z,99501.78
2023-03-16T12:51:00.925Z,99499.63
2023-03-16T12:53:52.031Z,99492.72
2023-03-16T12:56:26.766Z,99492.66
2023-03-16T12:58:56.951Z,99501.97
2023-03-16T13:01:38.186Z,99507.59
2023-03-16T13:04:14.263Z,99490.66
2023-03-16T13:06:49.477Z,99508.88
2023-03-16T13:09:22.061Z,99502.69
2023-03-16T13:11:50.308Z,99499.00
2023-03-16T13:14:34.483Z,99497.09
2023-03-16T13:17:16.909Z,99484.59
2023-03-16T13:19:46.697Z,99500.97
2023-03-16T13:22:17.315Z,99494.28
2023-03-16T13:25:10.417Z,99500.81
2023-03-16T13:27:39.644Z,99503.84
2023-03-16T13:30:33.784Z,99492.06
2023-03-16T13:33:21.821Z,99497.84
2023-03-16T13:35:51.254Z,99498.22
2023-03-16T13:38:28.802Z,99501.00
2023-03-16T13:41:01.929Z,99506.72
2023-03-16T13:43:32.823Z,99505.53
2023-03-16T13:46:00.297Z,99508.16
2023-03-16T13:48:27.813Z,99508.72
2023-03-16T13:50:59.599Z,99506.13
2023-03-16T13:53:32.894Z,99512.56
2023-03-16T13:56:04.402Z,99513.09
2023-03-16T13:58:35.652Z,99505.53
2023-03-16T14:01:05.587Z,99498.37
2023-03-16T14:03:38.616Z,99504.38
2023-03-16T14:06:07.304Z,99509.75
2023-03-16T14:08:35.070Z,99499.88
2023-03-16T14:11:03.775Z,99511.88
2023-03-16T14:13:36.173Z,99502.72
2023-03-16T14:16:13.952Z,99498.78
2023-03-16T14:18:52.099Z,99505.31
2023-03-16T14:21:23.280Z,99501.62
2023-03-16T14:23:57.451Z,99508.28
2023-03-16T14:26:25.645Z,99515.63
2023-03-16T14:29:16.117Z,99516.41
2023-03-16T14:31:44.870Z,99507.22
2023-03-16T14:34:39.522Z,99512.91
2023-03-16T14:37:17.618Z,99517.91
2023-03-16T14:39:46.585Z,99509.50
2023-03-16T14:42:19.923Z,99521.13
2023-03-16T14:44:48.209Z,99517.81
2023-03-16T14:47:22.967Z,99514.94
2023-03-16T14:49:51.023Z,99517.91
2023-03-16T14:52:25.548Z,99519.41
2023-03-16T14:54:55.077Z,99525.53
2023-03-16T14:57:22.975Z,99528.06
2023-03-16T14:59:50.483Z,99522.22
2023-03-16T15:02:21.356Z,99532.91
2023-03-16T15:04:49.593Z,99530.25
2023-03-16T15:07:23.944Z,99523.38
2023-03-16T15:09:53.868Z,99528.00
2023-03-16T15:12:24.330Z,99523.56
2023-03-16T15:15:10.827Z,99530.44
2023-03-16T15:17:38.924Z,99526.94
2023-03-16T15:20:07.366Z,99534.56
2023-03-16T15:22:37.713Z,99527.66
2023-03-16T15:25:36.277Z,99525.31
2023-03-16T15:28:11.858Z,99527.06
2023-03-16T15:30:40.385Z,99536.06
2023-03-16T15:33:09.999Z,99538.44
2023-03-16T15:35:37.871Z,99544.28
2023-03-16T15:38:11.578Z,99543.31
2023-03-16T15:40:39.981Z,99541.25
2023-03-16T15:43:12.785Z,99559.75
2023-03-16T15:45:40.587Z,99562.66
2023-03-16T15:48:10.451Z,99558.63
2023-03-16T15:50:39.808Z,99557.44
2023-03-16T15:53:30.022Z,99553.47
2023-03-16T15:56:10.217Z,99569.84
2023-03-16T15:58:41.907Z,99571.25
2023-03-16T16:01:27.004Z,99577.09
2023-03-16T16:03:56.001Z,99564.06
2023-03-16T16:06:24.396Z,99561.06
2023-03-16T16:08:52.372Z,99576.09
2023-03-16T16:11:29.338Z,99576.22
2023-03-16T16:13:57.884Z,99579.66
2023-03-16T16:16:29.571Z,99575.06
2023-03-16T16:18:57.063Z,99583.41
2023-03-16T16:21:29.006Z,99580.78
2023-03-16T16:23:56.865Z,99585.44
2023-03-16T16:26:29.560Z,99590.13
2023-03-16T16:28:59.501Z,99591.47
2023-03-16T16:31:28.878Z,99602.38
2023-03-16T16:33:57.020Z,99615.47
2023-03-16T16:36:25.324Z,99617.12
2023-03-16T16:38:56.520Z,99604.50
2023-03-16T16:41:27.793Z,99615.03
2023-03-16T16:43:56.575Z,99631.38
2023-03-16T16:46:27.347Z,99622.72
2023-03-16T16:49:01.794Z,99629.94
2023-03-16T16:51:30.255Z,99644.13
2023-03-16T16:53:59.310Z,99650.25
2023-03-16T16:56:29.190Z,99649.91
2023-03-16T16:58:57.733Z,99653.56
2023-03-16T17:01:33.403Z,99654.09
2023-03-16T17:04:02.554Z,99657.69
2023-03-16T17:06:30.963Z,99660.66
2023-03-16T17:08:58.544Z,99666.31
2023-03-16T17:11:30.095Z,99674.78
2023-03-16T17:13:59.625Z,99666.44
2023-03-16T17:16:32.877Z,99669.03
2023-03-16T17:19:01.797Z,99671.75
2023-03-16T17:21:31.207Z,99675.94
2023-03-16T17:24:00.408Z,99686.81
2023-03-16T17:26:34.449Z,99687.22
2023-03-16T17:29:06.422Z,99683.03
2023-03-16T17:31:39.671Z,99689.00
2023-03-16T17:34:16.779Z,99691.91
2023-03-16T17:36:46.966Z,99695.53
2023-03-16T17:39:21.166Z,99692.88
2023-03-16T17:41:59.675Z,99695.25
2023-03-16T17:44:32.660Z,99691.47
2023-03-16T17:47:01.452Z,99695.84
2023-03-16T17:49:30.822Z,99712.63
2023-03-16T17:51:59.085Z,99699.56
2023-03-16T17:54:28.912Z,99700.47
2023-03-16T17:57:00.414Z,99708.28
2023-03-16T17:59:31.562Z,99706.94
2023-03-16T18:02:00.310Z,99712.78
2023-03-16T18:04:30.391Z,99710.87
2023-03-16T18:06:58.840Z,99706.16
2023-03-16T18:09:29.223Z,99707.78
2023-03-16T18:11:58.223Z,99722.25
2023-03-16T18:14:35.984Z,99719.28
2023-03-16T18:17:31.397Z,99725.22
2023-03-16T18:20:00.924Z,99726.94
2023-03-16T18:22:32.839Z,99725.78
2023-03-16T18:25:23.397Z,99735.28
2023-03-16T18:27:52.533Z,99741.84
2023-03-16T18:30:22.189Z,99740.25
2023-03-16T18:32:52.467Z,99738.28
2023-03-16T18:35:21.936Z,99739.66
2023-03-16T18:37:53.480Z,99739.25
2023-03-16T18:40:27.239Z,99739.19
2023-03-16T18:42:56.274Z,99743.56
2023-03-16T18:45:26.532Z,99744.06
2023-03-16T18:47:57.143Z,99740.00
2023-03-16T18:50:31.384Z,99751.44
2023-03-16T18:53:00.016Z,99762.19
2023-03-16T18:55:29.685Z,99756.53
2023-03-16T18:57:59.211Z,99774.53
2023-03-16T19:00:30.462Z,99775.94
2023-03-16T19:03:03.675Z,99780.50
2023-03-16T19:05:39.776Z,99778.22
2023-03-16T19:08:12.167Z,99774.88
2023-03-16T19:10:48.187Z,99778.28
2023-03-16T19:13:23.373Z,99787.59
2023-03-16T19:15:56.710Z,99787.00
2023-03-16T19:18:27.796Z,99791.88
2023-03-16T19:20:57.431Z,99818.81
2023-03-16T19:23:34.313Z,99824.13
2023-03-16T19:26:05.245Z,99819.16
2023-03-16T19:28:40.115Z,99833.66
2023-03-16T19:31:22.652Z,99837.94
2023-03-16T19:33:53.940Z,99833.53
2023-03-16T19:36:25.360Z,99832.84
2023-03-16T19:38:55.259Z,99845.12
2023-03-16T19:41:32.449Z,99844.47
2023-03-16T19:44:08.826Z,99846.25
2023-03-16T19:46:37.680Z,99853.59
2023-03-16T19:49:11.946Z,99860.03
2023-03-16T19:51:40.987Z,99856.00
2023-03-16T19:54:22.492Z,99848.66
2023-03-16T19:56:53.014Z,99853.69
2023-03-16T19:59:27.960Z,99857.56
2023-03-16T20:01:57.447Z,99861.97
2023-03-16T20:04:27.900Z,99868.12
2023-03-16T20:06:57.799Z,99863.19
2023-03-16T20:09:27.886Z,99871.41
2023-03-16T20:11:56.819Z,99876.56
2023-03-16T20:14:31.190Z,99870.34
2023-03-16T20:17:02.119Z,99870.00
2023-03-16T20:19:32.159Z,99871.59
2023-03-16T20:22:01.553Z,99879.31
2023-03-16T20:24:30.400Z,99878.44
2023-03-16T20:27:09.435Z,99868.44
2023-03-16T20:29:41.812Z,99872.91
2023-03-16T20:32:23.071Z,99878.19
2023-03-16T20:34:54.691Z,99878.94
2023-03-16T20:37:31.345Z,99881.44
2023-03-16T20:40:05.218Z,99881.59
2023-03-16T20:42:35.398Z,99887.16
2023-03-16T20:45:19.957Z,99898.34
2023-03-16T20:47:49.435Z,99894.91
2023-03-16T20:50:21.610Z,99887.28
2023-03-16T20:52:50.603Z,99894.09
2023-03-16T20:55:21.843Z,99891.06
2023-03-16T20:57:52.047Z,99893.66
2023-03-16T21:00:38.251Z,99887.37
2023-03-16T21:03:17.600Z,99893.41
2023-03-16T21:05:46.556Z,99901.69
2023-03-16T21:08:16.728Z,99899.12
2023-03-16T21:10:46.412Z,99907.88
2023-03-16T21:13:21.675Z,99909.75
2023-03-16T21:15:52.645Z,99903.09
2023-03-16T21:18:23.013Z,99903.25
2023-03-16T21:20:52.097Z,99905.78
2023-03-16T21:23:22.614Z,99913.44
2023-03-16T21:25:53.436Z,99916.13
2023-03-16T21:28:23.295Z,99916.28
2023-03-16T21:30:53.429Z,99917.09
2023-03-16T21:33:37.617Z,99919.72
2023-03-16T21:36:08.243Z,99919.00
2023-03-16T21:38:36.678Z,99924.00
2023-03-16T21:41:04.353Z,99932.28
2023-03-16T21:43:32.172Z,99927.50
2023-03-16T21:46:00.026Z,99925.59
2023-03-16T21:48:37.125Z,99929.53
2023-03-16T21:51:13.586Z,99920.09
2023-03-16T21:53:41.155Z,99922.34
2023-03-16T21:56:13.035Z,99926.28
2023-03-16T21:58:40.505Z,99930.34
2023-03-16T22:01:39.448Z,99928.59
2023-03-16T22:04:17.381Z,99926.94
2023-03-16T22:06:46.005Z,99925.63
2023-03-16T22:09:18.737Z,99928.59
2023-03-16T22:11:46.205Z,99924.59
2023-03-16T22:14:14.004Z,99934.44
2023-03-16T22:16:41.596Z,99941.31
2023-03-16T22:19:12.153Z,99935.66
2023-03-16T22:21:41.979Z,99935.56
2023-03-16T22:24:18.732Z,99930.75
2023-03-16T22:26:48.888Z,99931.75
2023-03-16T22:29:33.429Z,99928.03
2023-03-16T22:32:04.288Z,99936.56
2023-03-16T22:34:48.720Z,99935.69
2023-03-16T22:37:23.123Z,99935.56
2023-03-16T22:39:51.137Z,99932.37
2023-03-16T22:42:26.990Z,99924.78
2023-03-16T22:44:55.435Z,99927.34
2023-03-16T22:47:26.168Z,99934.81
2023-03-16T22:49:53.955Z,99930.94
2023-03-16T22:52:25.264Z,99934.38
2023-03-16T22:54:53.073Z,99935.59
2023-03-16T22:57:20.594Z,99933.63
2023-03-16T22:59:48.397Z,99930.84
2023-03-16T23:02:16.292Z,99931.72
2023-03-16T23:04:44.477Z,99936.06
2023-03-16T23:07:13.532Z,99939.09
2023-03-16T23:09:41.377Z,99942.22
2023-03-16T23:12:14.954Z,99945.84
2023-03-16T23:14:43.381Z,99945.69
2023-03-16T23:17:28.957Z,99951.12
2023-03-16T23:19:56.640Z,99948.75
2023-03-16T23:22:24.034Z,99949.38
2023-03-16T23:24:51.408Z,99948.69
2023-03-16T23:27:21.962Z,99944.62
2023-03-16T23:29:49.567Z,99951.53
2023-03-16T23:32:17.235Z,99954.34
2023-03-16T23:34:46.386Z,99950.75
2023-03-16T23:37:13.856Z,99942.59
2023-03-16T23:39:41.250Z,99951.94
2023-03-16T23:42:09.197Z,99950.97
2023-03-16T23:44:36.587Z,99948.34
2023-03-16T23:47:04.016Z,99956.78
2023-03-16T23:49:35.853Z,99959.12
2023-03-16T23:52:03.949Z,99963.63
2023-03-16T23:54:32.679Z,99965.41
2023-03-16T23:57:00.127Z,99968.75
2023-03-16T23:59:27.834Z,99963.84
